createdAt,value
2023-05-13T00:01:26.544Z,1.98
2023-05-13T00:03:54.426Z,1.70
2023-05-13T00:06:22.153Z,2.83
2023-05-13T00:08:49.777Z,2.40
2023-05-13T00:11:17.393Z,1.92
2023-05-13T00:13:44.873Z,1.83
2023-05-13T00:16:12.538Z,2.78
2023-05-13T00:18:40.444Z,2.92
2023-05-13T00:21:08.137Z,2.40
2023-05-13T00:23:35.881Z,2.65
2023-05-13T00:26:03.635Z,3.25
2023-05-13T00:28:31.035Z,2.58
2023-05-13T00:30:58.470Z,2.63
2023-05-13T00:33:25.984Z,3.65
2023-05-13T00:35:53.472Z,2.83
2023-05-13T00:38:21.570Z,2.45
2023-05-13T00:40:49.845Z,2.88
2023-05-13T00:43:17.971Z,2.97
2023-05-13T00:45:45.411Z,2.88
2023-05-13T00:48:13.142Z,3.75
2023-05-13T00:50:44.171Z,3.15
2023-05-13T00:53:12.817Z,3.08
2023-05-13T00:55:45.231Z,1.63
2023-05-13T00:58:13.139Z,2.28
2023-05-13T01:01:23.114Z,4.15
2023-05-13T01:04:23.206Z,3.50
2023-05-13T01:07:22.058Z,3.78
2023-05-13T01:10:15.123Z,3.28
2023-05-13T01:12:45.744Z,5.20
2023-05-13T01:15:21.549Z,9.07
2023-05-13T01:18:11.696Z,5.30
2023-05-13T01:20:43.126Z,5.07
2023-05-13T01:23:11.701Z,7.18
2023-05-13T01:25:40.600Z,4.85
2023-05-13T01:28:09.402Z,3.28
2023-05-13T01:30:39.241Z,4.40
2023-05-13T01:33:07.090Z,3.70
2023-05-13T01:35:34.810Z,3.80
2023-05-13T01:38:04.715Z,3.43
2023-05-13T01:40:33.848Z,2.88
2023-05-13T01:43:05.237Z,4.80
2023-05-13T01:45:33.038Z,6.25
2023-05-13T01:48:01.512Z,6.65
2023-05-13T01:50:39.424Z,6.45
2023-05-13T01:53:07.402Z,13.63
2023-05-13T01:55:35.193Z,11.85
2023-05-13T02:00:32.048Z,9.43
2023-05-13T02:02:59.829Z,11.07
2023-05-13T02:05:27.523Z,10.90
2023-05-13T02:07:56.561Z,11.73
2023-05-13T02:10:24.105Z,12.75
2023-05-13T02:12:51.847Z,11.20
2023-05-13T02:15:19.280Z,10.55
2023-05-13T02:17:46.852Z,13.73
2023-05-13T02:20:14.890Z,12.52
2023-05-13T02:22:42.367Z,12.55
2023-05-13T02:25:10.140Z,9.73
2023-05-13T02:27:37.600Z,10.10
2023-05-13T02:30:06.360Z,11.30
2023-05-13T02:32:34.463Z,10.88
2023-05-13T02:35:01.937Z,10.82
2023-05-13T02:37:29.382Z,14.15
2023-05-13T02:40:02.793Z,15.30
2023-05-13T02:42:30.260Z,12.38
2023-05-13T02:44:58.036Z,12.10
2023-05-13T02:47:27.335Z,14.38
2023-05-13T02:49:56.464Z,15.80
2023-05-13T02:52:24.439Z,13.98
2023-05-13T02:54:51.993Z,10.88
2023-05-13T02:57:22.704Z,10.90
2023-05-13T02:59:50.519Z,12.10
2023-05-13T03:02:18.357Z,12.23
2023-05-13T03:04:45.933Z,10.35
2023-05-13T03:07:13.728Z,9.73
2023-05-13T03:09:41.663Z,11.25
2023-05-13T03:12:09.413Z,8.52
2023-05-13T03:14:36.980Z,6.43
2023-05-13T03:17:05.172Z,4.82
2023-05-13T03:19:36.297Z,6.18
2023-05-13T03:22:05.570Z,6.35
2023-05-13T03:24:33.717Z,7.32
2023-05-13T03:27:01.922Z,7.28
2023-05-13T03:29:30.388Z,8.37
2023-05-13T03:31:58.855Z,10.27
2023-05-13T03:34:26.984Z,10.75
2023-05-13T03:36:54.903Z,9.98
2023-05-13T03:39:22.795Z,10.63
2023-05-13T03:41:50.277Z,10.80
2023-05-13T03:44:18.047Z,14.98
2023-05-13T03:46:45.554Z,15.73
2023-05-13T03:49:13.678Z,10.18
2023-05-13T03:51:41.773Z,11.07
2023-05-13T03:54:09.201Z,10.45
2023-05-13T03:56:36.666Z,10.98
2023-05-13T03:59:03.999Z,13.88
2023-05-13T04:01:31.641Z,71.00
2023-05-13T04:03:59.062Z,61.17
2023-05-13T04:06:26.503Z,51.08
2023-05-13T04:08:54.677Z,24.77
2023-05-13T04:11:22.031Z,16.60
2023-05-13T04:13:49.527Z,17.17
2023-05-13T04:16:16.914Z,17.10
2023-05-13T04:18:44.366Z,20.38
2023-05-13T04:21:12.022Z,19.45
2023-05-13T04:23:39.510Z,21.95
2023-05-13T04:26:07.281Z,22.17
2023-05-13T04:28:35.651Z,18.42
2023-05-13T04:31:03.665Z,13.63
2023-05-13T04:33:33.136Z,8.13
2023-05-13T04:36:00.588Z,7.13
2023-05-13T04:38:28.053Z,6.70
2023-05-13T04:40:55.698Z,7.20
2023-05-13T04:43:31.566Z,13.07
2023-05-13T04:46:01.599Z,14.23
2023-05-13T04:48:29.411Z,19.35
2023-05-13T04:50:58.525Z,15.60
2023-05-13T04:53:26.821Z,10.73
2023-05-13T04:56:00.152Z,7.82
2023-05-13T04:58:29.154Z,6.22
2023-05-13T05:00:57.220Z,7.28
2023-05-13T05:03:25.108Z,6.65
2023-05-13T05:05:52.786Z,6.10
2023-05-13T05:08:21.250Z,5.80
2023-05-13T05:10:51.074Z,5.63
2023-05-13T05:13:19.468Z,4.93
2023-05-13T05:15:46.953Z,7.30
2023-05-13T05:18:15.605Z,7.93
2023-05-13T05:20:45.961Z,7.18
2023-05-13T05:23:16.505Z,7.78
2023-05-13T05:25:44.879Z,6.22
2023-05-13T05:28:12.912Z,5.90
2023-05-13T05:30:43.351Z,7.50
2023-05-13T05:33:20.833Z,6.18
2023-05-13T05:35:49.320Z,7.72
2023-05-13T05:38:18.327Z,7.68
2023-05-13T05:40:47.431Z,8.05
2023-05-13T05:43:15.957Z,7.88
2023-05-13T05:45:44.132Z,6.47
2023-05-13T05:48:16.125Z,8.27
2023-05-13T05:53:15.213Z,7.45
2023-05-13T05:55:42.716Z,6.35
2023-05-13T05:58:14.196Z,5.77
2023-05-13T06:00:42.038Z,3.72
2023-05-13T06:03:09.679Z,3.47
2023-05-13T06:05:38.829Z,3.25
2023-05-13T06:08:06.897Z,1.98
2023-05-13T06:10:34.752Z,2.20
2023-05-13T06:13:02.411Z,1.90
2023-05-13T06:15:30.382Z,1.08
2023-05-13T06:17:57.982Z,1.87
2023-05-13T06:20:26.338Z,2.55
2023-05-13T06:22:53.779Z,1.77
2023-05-13T06:25:21.188Z,1.35
2023-05-13T06:27:48.834Z,1.58
2023-05-13T06:30:19.504Z,1.20
2023-05-13T06:35:28.216Z,1.40
2023-05-13T06:37:56.104Z,1.50
2023-05-13T06:40:24.736Z,1.35
2023-05-13T06:42:52.861Z,1.85
2023-05-13T06:45:23.965Z,0.80
2023-05-13T06:47:52.815Z,1.17
2023-05-13T06:50:20.796Z,1.50
2023-05-13T06:52:48.787Z,0.93
2023-05-13T06:55:18.228Z,1.15
2023-05-13T06:57:48.639Z,0.60
2023-05-13T07:00:17.191Z,0.57
2023-05-13T07:02:44.924Z,0.65
2023-05-13T07:05:12.560Z,0.40
2023-05-13T07:07:40.008Z,0.75
2023-05-13T07:10:07.862Z,0.70
2023-05-13T07:12:35.330Z,0.43
2023-05-13T07:15:03.086Z,1.60
2023-05-13T07:17:30.727Z,1.25
2023-05-13T07:19:58.598Z,0.60
2023-05-13T07:22:27.278Z,0.90
2023-05-13T07:24:55.559Z,0.57
2023-05-13T07:27:22.999Z,0.50
2023-05-13T07:29:50.390Z,0.60
2023-05-13T07:32:17.952Z,0.45
2023-05-13T07:34:45.460Z,0.82
2023-05-13T07:37:13.696Z,0.55
2023-05-13T07:39:41.327Z,0.80
2023-05-13T07:42:09.411Z,0.50
2023-05-13T07:44:36.915Z,0.55
2023-05-13T07:47:04.764Z,0.45
2023-05-13T07:49:32.182Z,0.70
2023-05-13T07:51:59.670Z,0.40
2023-05-13T07:54:28.669Z,0.40
